Time;durP1;ratioP1;P1;durP2;ratioP2;P2;SDS_P1;SDS_P2;PMS_P1;PMS_P2;Temp;Humidity;BMP_temperature;BMP_pressure;BME280_temperature;BME280_humidity;BME280_pressure;Samples;Min_cycle;Max_cycle;Signal;HPM_P1;HPM_P2
2023/05/04 00:02:16;;;;;;;9.70;5.20;;;;;;;3.70;71.07;101598.54;105166;1263;69934;-47
2023/05/04 00:04:44;;;;;;;12.20;5.20;;;;;;;3.68;70.99;101594.36;105214;1260;70016;-47
2023/05/04 00:07:12;;;;;;;11.50;5.70;;;;;;;3.67;70.99;101593.31;105198;1262;74664;-45
2023/05/04 00:09:40;;;;;;;9.20;5.10;;;;;;;3.65;71.16;101593.65;105159;1257;82992;-46
2023/05/04 00:12:08;;;;;;;8.80;4.80;;;;;;;3.62;71.21;101593.79;105218;1260;70908;-47
2023/05/04 00:14:37;;;;;;;8.60;5.30;;;;;;;3.59;71.38;101591.68;105178;1258;69900;-47
2023/05/04 00:17:06;;;;;;;11.20;5.20;;;;;;;3.59;71.41;101593.40;105188;1263;69989;-46
2023/05/04 00:19:35;;;;;;;12.30;5.40;;;;;;;3.61;71.63;101592.73;105216;1260;74755;-47
2023/05/04 00:22:03;;;;;;;11.60;5.50;;;;;;;3.60;71.68;101591.52;105297;1257;82721;-46
2023/05/04 00:24:31;;;;;;;8.90;5.70;;;;;;;3.58;71.71;101589.09;105149;1257;73755;-47
2023/05/04 00:26:59;;;;;;;8.60;5.70;;;;;;;3.59;71.93;101592.20;105150;1261;69966;-46
2023/05/04 00:29:27;;;;;;;9.60;5.60;;;;;;;3.59;72.10;101590.30;105169;1262;69933;-46
2023/05/04 00:31:55;;;;;;;9.30;5.60;;;;;;;3.54;71.93;101587.83;105042;1264;74247;-46
2023/05/04 00:34:24;;;;;;;13.80;6.40;;;;;;;3.50;71.96;101583.98;105229;1260;81645;-45
2023/05/04 00:36:52;;;;;;;13.50;6.30;;;;;;;3.48;71.69;101582.92;105049;1259;73250;-46
2023/05/04 00:39:20;;;;;;;14.90;6.60;;;;;;;3.47;72.29;101583.60;105143;1270;70361;-47
2023/05/04 00:41:49;;;;;;;14.30;5.80;;;;;;;3.46;72.23;101582.73;105196;1270;69990;-47
2023/05/04 00:44:17;;;;;;;14.50;6.20;;;;;;;3.44;71.91;101585.98;105152;1270;74081;-46
2023/05/04 00:46:46;;;;;;;13.00;5.90;;;;;;;3.42;72.28;101584.92;105232;1260;82837;-47
2023/05/04 00:49:14;;;;;;;12.90;6.50;;;;;;;3.37;72.20;101583.15;105211;1260;72112;-47
2023/05/04 00:51:42;;;;;;;11.10;6.20;;;;;;;3.31;72.34;101588.95;105071;1263;69938;-46
2023/05/04 00:54:10;;;;;;;11.00;6.20;;;;;;;3.27;72.07;101589.95;105170;1263;70004;-46
2023/05/04 00:56:42;;;;;;;11.30;5.40;;;;;;;3.23;72.17;101587.98;105326;1260;73239;-48
2023/05/04 00:59:12;;;;;;;8.80;4.90;;;;;;;3.21;72.60;101587.10;105111;1262;82988;-46
2023/05/04 01:01:41;;;;;;;7.90;4.80;;;;;;;3.26;73.17;101587.86;105120;1262;73074;-46
2023/05/04 01:04:09;;;;;;;13.20;4.20;;;;;;;3.28;72.99;101583.73;105183;1258;70021;-46
2023/05/04 01:06:44;;;;;;;7.30;4.20;;;;;;;3.22;72.71;101580.21;105237;1261;70017;-46
2023/05/04 01:09:20;;;;;;;6.80;3.80;;;;;;;3.21;73.05;101580.20;105227;1263;73858;-46
2023/05/04 01:12:04;;;;;;;8.40;4.10;;;;;;;3.20;72.94;101578.61;105153;1260;83472;-46
2023/05/04 01:14:36;;;;;;;7.50;4.60;;;;;;;3.15;72.62;101579.77;105200;1257;72737;-46
2023/05/04 01:17:05;;;;;;;7.20;4.50;;;;;;;3.12;73.17;101578.52;105214;1260;69931;-46
2023/05/04 01:19:34;;;;;;;7.30;4.40;;;;;;;3.11;73.05;101579.04;105205;1261;70025;-46
2023/05/04 01:22:02;;;;;;;7.70;4.20;;;;;;;3.09;72.98;101578.84;105209;1263;74278;-46
2023/05/04 01:24:30;;;;;;;6.70;4.50;;;;;;;3.05;73.00;101583.63;105176;1270;83251;-45
2023/05/04 01:27:10;;;;;;;7.00;4.00;;;;;;;3.01;73.22;101582.36;105017;1264;73226;-46
2023/05/04 01:29:54;;;;;;;8.00;4.00;;;;;;;2.95;72.95;101584.86;105038;1261;69843;-46
2023/05/04 01:32:22;;;;;;;8.70;4.50;;;;;;;2.90;73.39;101584.63;105087;1263;70072;-47
2023/05/04 01:34:51;;;;;;;7.10;4.30;;;;;;;2.89;73.55;101588.77;105197;1258;73418;-48
2023/05/04 01:37:19;;;;;;;8.70;5.10;;;;;;;2.86;73.36;101588.38;105141;1261;83148;-47
2023/05/04 01:39:47;;;;;;;8.00;4.60;;;;;;;2.82;73.42;101588.84;105236;1263;70254;-47
2023/05/04 01:42:15;;;;;;;7.70;4.20;;;;;;;2.81;73.66;101590.73;105144;1261;69960;-47
2023/05/04 01:44:43;;;;;;;9.00;4.30;;;;;;;2.79;73.61;101588.79;105183;1263;70332;-46
2023/05/04 01:47:11;;;;;;;8.90;4.30;;;;;;;2.75;73.77;101588.05;105192;1261;74451;-46
2023/05/04 01:49:39;;;;;;;6.60;4.30;;;;;;;2.71;73.76;101585.23;105169;1258;83091;-46
2023/05/04 01:52:09;;;;;;;7.70;4.30;;;;;;;2.69;73.99;101581.41;105228;1262;72762;-46
2023/05/04 01:54:37;;;;;;;7.60;4.00;;;;;;;2.66;73.97;101581.52;105147;1270;69993;-46
2023/05/04 01:57:05;;;;;;;7.20;4.30;;;;;;;2.61;73.91;101587.17;105178;1260;70026;-46
2023/05/04 01:59:33;;;;;;;8.80;4.50;;;;;;;2.58;74.02;101589.89;105074;1256;74323;-46
2023/05/04 02:02:02;;;;;;;9.10;4.00;;;;;;;2.57;74.02;101592.28;105193;1270;82931;-46
2023/05/04 02:04:30;;;;;;;7.30;4.40;;;;;;;2.55;74.23;101587.77;105059;1260;73157;-46
2023/05/04 02:06:58;;;;;;;6.60;4.60;;;;;;;2.54;74.17;101587.57;105169;1260;69923;-45
2023/05/04 02:09:26;;;;;;;10.10;4.50;;;;;;;2.52;74.12;101585.81;105116;1263;70066;-46
2023/05/04 02:11:54;;;;;;;11.20;4.70;;;;;;;2.49;73.84;101590.09;105194;1263;74218;-45
2023/05/04 02:14:24;;;;;;;8.60;4.30;;;;;;;2.46;73.88;101588.66;105228;1260;82968;-47
2023/05/04 02:16:52;;;;;;;7.40;4.50;;;;;;;2.42;74.05;101588.95;105269;1260;72361;-48
2023/05/04 02:19:21;;;;;;;11.70;5.00;;;;;;;2.36;74.11;101587.15;105149;1263;70000;-49
2023/05/04 02:21:49;;;;;;;7.00;4.10;;;;;;;2.33;74.22;101588.80;105197;1258;70015;-46
2023/05/04 02:24:17;;;;;;;7.80;4.50;;;;;;;2.31;74.30;101585.50;105182;1260;71412;-46
2023/05/04 02:26:45;;;;;;;7.30;5.00;;;;;;;2.30;74.25;101584.98;105076;1262;82438;-48
2023/05/04 02:29:13;;;;;;;8.10;5.20;;;;;;;2.29;74.28;101584.94;105151;1260;72733;-46
2023/05/04 02:31:41;;;;;;;9.70;5.30;;;;;;;2.26;74.54;101581.45;105056;1264;70540;-46
2023/05/04 02:34:09;;;;;;;7.30;4.40;;;;;;;2.25;74.55;101579.02;105063;1257;69913;-46
2023/05/04 02:40:27;;;;;;;7.50;4.10;;;;;;;2.18;74.65;101577.36;105201;1258;81935;-46
2023/05/04 02:42:56;;;;;;;7.10;4.80;;;;;;;2.16;74.82;101578.36;105258;1260;73853;-46
2023/05/04 02:45:25;;;;;;;7.60;4.40;;;;;;;2.14;74.77;101576.43;105234;1260;70011;-46
2023/05/04 02:47:54;;;;;;;7.60;4.60;;;;;;;2.13;74.75;101580.55;105256;1258;69987;-46
2023/05/04 02:50:22;;;;;;;6.60;4.10;;;;;;;2.10;74.77;101577.40;105143;1260;74042;-47
2023/05/04 02:52:50;;;;;;;8.30;4.20;;;;;;;2.07;74.82;101580.44;105192;1257;82508;-46
2023/05/04 02:55:18;;;;;;;6.30;3.90;;;;;;;2.04;74.87;101582.48;105192;1260;72792;-49
2023/05/04 02:57:46;;;;;;;7.50;4.50;;;;;;;2.03;75.13;101580.22;105057;1261;69997;-47
2023/05/04 03:00:15;;;;;;;8.90;4.90;;;;;;;2.03;75.16;101580.39;105303;1260;69925;-47
2023/05/04 03:02:43;;;;;;;11.30;5.20;;;;;;;2.00;75.34;101586.55;105272;1257;75051;-47
2023/05/04 03:05:11;;;;;;;6.50;4.60;;;;;;;1.98;75.35;101586.86;105064;1264;82437;-47
2023/05/04 03:07:40;;;;;;;7.30;4.80;;;;;;;1.95;75.20;101587.32;105144;1256;72775;-47
2023/05/04 03:10:08;;;;;;;7.00;5.30;;;;;;;1.92;75.51;101587.09;105142;1257;70052;-47
2023/05/04 03:12:37;;;;;;;8.60;6.10;;;;;;;1.90;75.33;101589.98;105293;1257;69887;-46
2023/05/04 03:15:06;;;;;;;8.30;5.50;;;;;;;1.87;75.35;101592.17;105243;1260;74905;-46
2023/05/04 03:17:34;;;;;;;8.70;5.50;;;;;;;1.85;75.36;101596.09;105193;1257;83444;-46
2023/05/04 03:20:03;;;;;;;8.60;5.40;;;;;;;1.84;75.47;101593.34;105184;1257;73859;-47
2023/05/04 03:22:32;;;;;;;8.20;5.20;;;;;;;1.85;75.90;101596.96;105124;1264;69964;-47
2023/05/04 03:25:01;;;;;;;6.90;5.00;;;;;;;1.85;75.78;101594.20;105243;1258;69924;-46
2023/05/04 03:27:29;;;;;;;9.60;5.40;;;;;;;1.84;75.82;101593.15;105252;1260;75247;-47
2023/05/04 03:29:57;;;;;;;13.00;5.90;;;;;;;1.79;75.71;101593.59;105183;1257;83377;-47
2023/05/04 03:32:26;;;;;;;7.40;5.00;;;;;;;1.75;75.90;101595.75;105189;1260;73796;-47
2023/05/04 03:34:54;;;;;;;9.60;5.50;;;;;;;1.73;75.78;101595.72;105116;1257;69983;-47
2023/05/04 03:37:23;;;;;;;8.40;5.00;;;;;;;1.71;75.92;101592.92;105217;1257;69951;-47
2023/05/04 03:39:51;;;;;;;6.00;4.90;;;;;;;1.70;76.09;101594.98;105257;1260;73172;-47
2023/05/04 03:42:19;;;;;;;7.10;5.10;;;;;;;1.70;76.01;101591.17;105242;1256;82363;-47
2023/05/04 03:44:47;;;;;;;7.80;4.90;;;;;;;1.67;76.14;101595.61;105033;1264;72162;-48
2023/05/04 03:47:16;;;;;;;7.30;4.90;;;;;;;1.66;76.00;101595.23;105199;1256;70000;-47
2023/05/04 03:49:44;;;;;;;7.50;5.00;;;;;;;1.66;76.34;101599.36;105190;1260;70006;-46
2023/05/04 03:52:12;;;;;;;8.30;5.50;;;;;;;1.66;76.49;101599.73;105284;1258;74488;-46
2023/05/04 03:54:40;;;;;;;7.50;5.40;;;;;;;1.68;76.81;101597.86;105105;1257;82518;-49
2023/05/04 03:57:08;;;;;;;8.50;6.00;;;;;;;1.72;76.84;101597.42;105228;1261;73584;-46
2023/05/04 03:59:37;;;;;;;10.80;6.00;;;;;;;1.74;76.86;101596.60;105047;1258;70316;-46
2023/05/04 04:02:06;;;;;;;9.30;6.30;;;;;;;1.74;76.93;101597.80;105255;1260;70002;-47
2023/05/04 04:04:35;;;;;;;9.10;6.20;;;;;;;1.78;77.20;101599.26;105259;1257;74659;-46
2023/05/04 04:07:04;;;;;;;11.40;6.00;;;;;;;1.85;77.50;101603.16;105239;1260;83191;-46
2023/05/04 04:09:32;;;;;;;10.60;6.40;;;;;;;1.88;77.30;101600.64;105115;1257;73503;-47
2023/05/04 04:12:01;;;;;;;7.30;5.70;;;;;;;1.85;77.16;101593.52;105059;1257;70035;-47
2023/05/04 04:14:29;;;;;;;9.90;6.80;;;;;;;1.86;77.34;101596.82;105261;1257;69929;-47
2023/05/04 04:16:58;;;;;;;9.20;6.10;;;;;;;1.91;77.38;101598.79;105293;1258;73934;-47
2023/05/04 04:19:26;;;;;;;8.30;5.80;;;;;;;1.93;77.32;101598.32;105054;1257;84603;-47
2023/05/04 04:21:54;;;;;;;8.50;5.80;;;;;;;1.98;77.62;101600.98;105218;1256;73785;-47
2023/05/04 04:24:22;;;;;;;10.30;6.00;;;;;;;2.04;77.72;101598.33;105257;1260;69883;-47
2023/05/04 04:26:50;;;;;;;8.60;6.30;;;;;;;2.09;77.87;101598.08;105228;1260;71272;-47
2023/05/04 04:29:19;;;;;;;7.60;5.70;;;;;;;2.16;78.18;101601.98;105267;1260;75114;-46
2023/05/04 04:31:47;;;;;;;9.00;6.10;;;;;;;2.24;78.26;101598.84;105225;1260;83915;-47
2023/05/04 04:34:15;;;;;;;8.60;6.10;;;;;;;2.33;78.56;101596.57;105129;1257;72841;-45
2023/05/04 04:36:44;;;;;;;8.50;6.00;;;;;;;2.42;78.70;101598.44;105141;1260;69935;-48
2023/05/04 04:39:12;;;;;;;10.40;6.60;;;;;;;2.53;79.10;101600.50;105291;1258;69988;-46
2023/05/04 04:41:40;;;;;;;8.90;6.10;;;;;;;2.64;79.15;101597.91;105208;1257;73820;-46
2023/05/04 04:44:09;;;;;;;8.50;6.00;;;;;;;2.74;79.40;101594.95;105227;1258;83422;-46
2023/05/04 04:46:37;;;;;;;9.80;6.00;;;;;;;2.85;79.30;101595.09;105335;1261;73763;-46
2023/05/04 04:49:06;;;;;;;11.70;7.00;;;;;;;2.96;79.60;101595.93;105386;1258;70307;-47
2023/05/04 04:51:34;;;;;;;12.50;7.30;;;;;;;3.07;79.82;101596.08;105185;1259;69992;-46
2023/05/04 04:54:03;;;;;;;11.70;7.00;;;;;;;3.20;80.07;101594.34;105381;1258;76086;-46
2023/05/04 04:56:31;;;;;;;8.70;6.70;;;;;;;3.33;80.55;101594.86;105284;1256;82582;-46
2023/05/04 04:58:59;;;;;;;10.70;6.60;;;;;;;3.45;80.78;101594.80;105281;1258;74399;-46
2023/05/04 05:01:28;;;;;;;12.10;7.00;;;;;;;3.57;81.06;101590.97;105220;1259;69957;-46
2023/05/04 05:03:56;;;;;;;11.00;6.80;;;;;;;3.68;81.04;101586.42;105278;1258;69803;-46
2023/05/04 05:06:25;;;;;;;9.90;6.90;;;;;;;3.78;81.20;101583.92;105261;1259;75174;-46
2023/05/04 05:08:53;;;;;;;8.90;6.40;;;;;;;3.90;81.03;101585.07;105277;1260;83495;-46
2023/05/04 05:11:21;;;;;;;10.50;7.20;;;;;;;4.02;81.11;101586.58;105248;1256;73195;-46
2023/05/04 05:13:49;;;;;;;10.10;6.80;;;;;;;4.14;81.04;101585.63;105211;1255;69852;-46
2023/05/04 05:16:17;;;;;;;12.20;6.50;;;;;;;4.28;81.25;101589.56;105226;1260;70021;-46
2023/05/04 05:18:46;;;;;;;11.00;7.20;;;;;;;4.43;81.46;101590.52;105280;1259;75379;-49
2023/05/04 05:21:14;;;;;;;11.70;7.00;;;;;;;4.58;81.82;101592.02;105593;1257;82701;-46
2023/05/04 05:23:43;;;;;;;9.40;6.30;;;;;;;4.72;81.73;101590.20;105246;1260;73993;-46
2023/05/04 05:26:11;;;;;;;9.50;6.70;;;;;;;4.83;81.82;101593.56;105355;1257;69999;-48
2023/05/04 05:28:39;;;;;;;11.90;6.30;;;;;;;4.96;81.73;101595.19;105273;1260;69836;-46
2023/05/04 05:31:07;;;;;;;10.40;6.60;;;;;;;5.09;81.76;101595.25;105259;1260;74921;-46
2023/05/04 05:33:36;;;;;;;9.50;7.10;;;;;;;5.22;81.72;101589.08;105288;1256;83584;-46
2023/05/04 05:36:04;;;;;;;10.10;7.00;;;;;;;5.35;81.84;101591.73;105202;1260;73729;-47
2023/05/04 05:38:33;;;;;;;10.90;6.50;;;;;;;5.48;81.66;101595.23;105467;1256;70693;-46
2023/05/04 05:41:01;;;;;;;13.90;7.20;;;;;;;5.61;81.63;101595.09;105259;1257;69898;-46
2023/05/04 05:43:31;;;;;;;9.30;6.90;;;;;;;5.73;81.45;101590.27;105212;1259;75278;-46
2023/05/04 05:46:00;;;;;;;;;;;;;;;5.88;81.52;101591.17;105402;1260;83481;-46
2023/05/04 05:48:28;;;;;;;8.70;5.80;;;;;;;6.01;81.15;101597.45;105232;1256;72972;-47
2023/05/04 05:50:56;;;;;;;9.80;5.70;;;;;;;6.13;80.76;101596.41;105258;1259;70069;-47
2023/05/04 05:53:24;;;;;;;11.10;6.80;;;;;;;6.25;80.72;101596.94;105260;1257;69918;-47
2023/05/04 05:55:52;;;;;;;9.30;6.10;;;;;;;6.39;80.49;101601.63;105274;1257;74201;-46
2023/05/04 05:58:21;;;;;;;12.40;5.50;;;;;;;6.55;80.36;101597.63;105373;1256;83134;-47
2023/05/04 06:00:49;;;;;;;8.90;5.50;;;;;;;6.68;79.91;101598.64;105264;1259;73772;-48
2023/05/04 06:03:17;;;;;;;9.40;5.10;;;;;;;6.81;79.73;101597.92;105228;1256;70137;-47
2023/05/04 06:05:46;;;;;;;9.30;5.30;;;;;;;6.94;79.12;101603.63;105248;1259;69878;-48
2023/05/04 06:08:14;;;;;;;12.60;5.80;;;;;;;7.08;79.04;101601.66;105226;1259;74936;-47
2023/05/04 06:10:42;;;;;;;7.70;5.00;;;;;;;7.22;78.70;101598.30;105449;1257;83213;-47
2023/05/04 06:13:10;;;;;;;7.70;5.20;;;;;;;7.35;78.39;101599.48;105191;1259;72633;-47
2023/05/04 06:15:39;;;;;;;8.50;5.20;;;;;;;7.47;77.99;101600.46;105341;1259;70005;-46
2023/05/04 06:18:07;;;;;;;11.40;5.50;;;;;;;7.60;77.89;101599.70;105342;1256;69941;-51
2023/05/04 06:20:35;;;;;;;7.40;4.80;;;;;;;7.74;77.73;101602.23;105271;1257;74994;-48
2023/05/04 06:23:03;;;;;;;9.60;5.10;;;;;;;7.88;77.92;101601.61;105368;1259;83029;-46
2023/05/04 06:25:31;;;;;;;8.20;4.80;;;;;;;8.03;77.06;101603.07;105279;1258;73568;-47
2023/05/04 06:28:00;;;;;;;8.40;4.80;;;;;;;8.21;76.52;101601.02;105239;1257;69989;-47
2023/05/04 06:30:28;;;;;;;12.20;5.20;;;;;;;8.38;75.49;101592.54;105372;1259;69958;-47
2023/05/04 06:32:56;;;;;;;12.60;4.60;;;;;;;8.55;74.77;101593.44;105171;1258;75122;-47
2023/05/04 06:35:24;;;;;;;10.00;4.30;;;;;;;8.72;74.23;101592.23;105253;1260;83265;-47
2023/05/04 06:37:53;;;;;;;7.80;4.40;;;;;;;8.92;73.30;101588.88;105334;1257;74033;-47
2023/05/04 06:40:21;;;;;;;7.90;4.30;;;;;;;9.07;73.07;101589.23;105290;1256;69877;-49
2023/05/04 06:42:49;;;;;;;7.50;4.30;;;;;;;9.25;72.80;101588.31;105230;1258;69922;-49
2023/05/04 06:45:17;;;;;;;8.50;3.90;;;;;;;9.42;72.35;101592.98;105260;1258;73762;-48
2023/05/04 06:47:46;;;;;;;7.70;4.20;;;;;;;9.60;71.72;101592.89;105244;1257;82606;-47
2023/05/04 06:50:14;;;;;;;8.90;4.30;;;;;;;9.79;70.88;101591.59;105371;1259;73939;-48
2023/05/04 06:52:43;;;;;;;5.80;4.00;;;;;;;9.94;70.27;101587.00;105287;1259;69974;-47
2023/05/04 06:55:12;;;;;;;7.20;4.10;;;;;;;10.09;70.08;101585.20;105319;1259;70001;-48
2023/05/04 06:57:41;;;;;;;7.70;3.90;;;;;;;10.25;69.78;101587.91;105343;1256;74937;-47
2023/05/04 07:00:09;;;;;;;6.40;3.70;;;;;;;10.42;69.59;101589.05;105368;1259;84759;-47
2023/05/04 07:02:37;;;;;;;6.70;3.70;;;;;;;10.58;69.20;101586.49;105368;1258;73713;-47
2023/05/04 07:05:07;;;;;;;5.00;3.10;;;;;;;10.75;68.50;101590.38;105505;1256;69830;-48
2023/05/04 07:07:36;;;;;;;4.30;2.80;;;;;;;10.89;67.60;101585.91;105285;1257;70086;-47
2023/05/04 07:10:05;;;;;;;5.10;2.30;;;;;;;10.98;65.90;101588.89;105238;1257;74608;-47
2023/05/04 07:12:34;;;;;;;5.70;2.70;;;;;;;11.03;64.70;101590.36;105426;1257;84252;-49
2023/05/04 07:15:02;;;;;;;4.40;2.90;;;;;;;11.09;64.17;101586.02;105300;1259;73847;-49
2023/05/04 07:17:31;;;;;;;6.70;3.00;;;;;;;11.22;64.22;101584.39;105419;1256;69962;-47
2023/05/04 07:20:01;;;;;;;4.60;2.90;;;;;;;11.38;64.44;101579.13;105429;1256;69992;-47
2023/05/04 07:22:31;;;;;;;5.70;2.20;;;;;;;11.55;63.88;101579.64;105424;1258;73805;-47
2023/05/04 07:25:00;;;;;;;6.90;2.30;;;;;;;11.66;62.80;101580.27;105343;1257;81928;-48
2023/05/04 07:27:28;;;;;;;3.70;2.30;;;;;;;11.77;62.01;101577.92;105380;1259;72206;-48
2023/05/04 07:29:56;;;;;;;6.00;2.40;;;;;;;11.89;60.77;101573.29;105433;1259;70023;-49
2023/05/04 07:32:25;;;;;;;5.20;2.30;;;;;;;12.01;60.43;101570.55;105313;1259;70033;-47
2023/05/04 07:34:53;;;;;;;3.40;1.70;;;;;;;12.07;59.67;101573.04;105220;1258;74042;-47
2023/05/04 07:37:21;;;;;;;3.90;2.10;;;;;;;12.10;58.56;101568.94;105327;1259;83769;-47
2023/05/04 07:39:49;;;;;;;3.80;2.20;;;;;;;12.11;58.36;101566.98;105284;1257;72729;-46
2023/05/04 07:42:18;;;;;;;6.00;2.40;;;;;;;12.18;57.82;101566.10;105413;1259;69990;-47
2023/05/04 07:44:46;;;;;;;6.60;2.50;;;;;;;12.23;58.31;101568.79;105351;1256;71304;-47
2023/05/04 07:47:14;;;;;;;4.00;2.00;;;;;;;12.36;57.91;101564.06;105372;1259;74958;-48
2023/05/04 07:49:42;;;;;;;4.20;2.30;;;;;;;12.42;57.00;101563.92;105383;1259;83673;-48
2023/05/04 07:52:11;;;;;;;5.90;2.30;;;;;;;12.45;56.57;101560.67;105400;1260;72315;-47
2023/05/04 07:54:39;;;;;;;4.50;2.30;;;;;;;12.52;56.11;101559.11;105296;1258;70155;-50
2023/05/04 07:57:07;;;;;;;5.30;2.90;;;;;;;12.58;55.96;101558.91;105546;1256;69942;-49
2023/05/04 07:59:36;;;;;;;11.00;2.60;;;;;;;12.62;55.24;101560.41;105548;1256;75091;-45
2023/05/04 08:02:04;;;;;;;3.80;2.40;;;;;;;12.64;55.00;101553.86;105510;1256;83208;-48
2023/05/04 08:04:33;;;;;;;3.60;2.70;;;;;;;12.68;54.92;101546.20;105498;1256;72856;-44
2023/05/04 08:07:01;;;;;;;5.60;2.70;;;;;;;12.79;55.26;101548.35;105339;1257;70694;-47
2023/05/04 08:09:29;;;;;;;5.40;2.20;;;;;;;12.90;54.66;101539.98;105218;1256;70012;-48
2023/05/04 08:11:57;;;;;;;4.60;2.40;;;;;;;12.98;54.23;101540.11;105216;1257;74716;-48
2023/05/04 08:14:26;;;;;;;4.50;2.70;;;;;;;13.01;53.59;101537.92;105289;1257;83173;-48
2023/05/04 08:16:54;;;;;;;4.00;2.90;;;;;;;13.04;53.33;101536.92;105315;1259;72068;-47
2023/05/04 08:19:22;;;;;;;4.40;2.90;;;;;;;13.11;53.16;101534.45;105348;1259;70091;-48
2023/05/04 08:21:50;;;;;;;4.30;2.50;;;;;;;13.13;52.76;101531.40;105307;1259;69976;-48
2023/05/04 08:24:18;;;;;;;4.70;2.30;;;;;;;13.18;52.59;101528.48;105327;1256;74929;-48
2023/05/04 08:26:46;;;;;;;4.50;2.80;;;;;;;13.26;52.18;101536.33;105329;1256;83765;-48
2023/05/04 08:29:31;;;;;;;5.90;2.50;;;;;;;13.34;52.03;101531.51;105321;1256;73739;-47
2023/05/04 08:31:59;;;;;;;5.40;2.40;;;;;;;13.43;51.61;101533.02;105443;1259;69992;-48
2023/05/04 08:34:27;;;;;;;4.20;2.80;;;;;;;13.50;51.60;101534.38;105323;1259;70008;-48
2023/05/04 08:36:55;;;;;;;4.20;2.30;;;;;;;13.61;51.46;101530.17;105351;1259;75130;-47
2023/05/04 08:39:24;;;;;;;4.30;2.50;;;;;;;13.72;51.34;101532.45;105405;1256;82621;-47
2023/05/04 08:41:52;;;;;;;5.30;2.20;;;;;;;13.87;51.11;101528.26;105322;1258;72718;-47
2023/05/04 08:44:21;;;;;;;4.30;2.50;;;;;;;13.99;50.79;101529.81;105362;1256;69884;-47
2023/05/04 08:46:52;;;;;;;3.80;2.00;;;;;;;14.10;50.50;101530.17;105403;1257;69818;-48
2023/05/04 08:49:23;;;;;;;3.80;1.90;;;;;;;14.24;50.45;101532.32;105366;1257;73965;-47
2023/05/04 08:51:51;;;;;;;4.10;1.90;;;;;;;14.50;50.44;101527.90;105379;1256;82585;-47
2023/05/04 08:54:20;;;;;;;6.00;2.10;;;;;;;14.72;49.68;101517.45;105345;1257;72554;-47
2023/05/04 08:56:50;;;;;;;3.10;1.70;;;;;;;14.91;49.31;101517.67;105384;1255;69883;-45
2023/05/04 08:59:20;;;;;;;4.70;1.80;;;;;;;15.11;49.01;101517.95;105351;1256;69814;-45
2023/05/04 09:01:50;;;;;;;;;;;;;;;15.31;48.64;101517.17;105379;1259;73801;-44
2023/05/04 09:04:19;;;;;;;8.60;2.20;;;;;;;15.49;47.91;101518.05;105359;1256;82309;-46
2023/05/04 09:06:48;;;;;;;4.40;2.10;;;;;;;15.64;47.61;101520.48;105312;1257;72717;-45
2023/05/04 09:09:16;;;;;;;4.80;2.00;;;;;;;15.78;46.90;101519.02;105352;1259;70016;-47
2023/05/04 09:11:44;;;;;;;4.00;2.10;;;;;;;15.88;46.69;101518.25;105340;1256;69895;-48
2023/05/04 09:14:12;;;;;;;6.40;2.30;;;;;;;16.04;46.64;101517.59;105367;1257;75368;-47
2023/05/04 09:16:40;;;;;;;3.30;2.00;;;;;;;16.21;46.24;101516.00;105391;1253;83479;-48
2023/05/04 09:19:19;;;;;;;4.80;2.40;;;;;;;16.27;45.57;101511.48;105390;1253;72782;-48
2023/05/04 09:21:48;;;;;;;3.50;1.80;;;;;;;16.36;45.20;101516.21;105413;1254;69979;-45
2023/05/04 09:24:26;;;;;;;4.90;1.90;;;;;;;16.46;44.81;101512.95;105425;1253;69969;-49
2023/05/04 09:27:07;;;;;;;3.30;1.90;;;;;;;16.59;44.46;101516.98;105463;1254;73861;-45
2023/05/04 09:29:39;;;;;;;3.60;2.00;;;;;;;16.63;43.67;101509.06;105409;1258;83442;-45
2023/05/04 09:32:14;;;;;;;3.30;1.90;;;;;;;16.63;43.88;101512.23;105392;1253;73843;-45
2023/05/04 09:34:50;;;;;;;3.30;1.90;;;;;;;16.79;44.11;101508.37;105414;1254;69903;-47
2023/05/04 09:37:20;;;;;;;4.20;1.80;;;;;;;17.03;43.91;101504.45;105471;1256;69913;-47
2023/05/04 09:39:56;;;;;;;6.70;2.20;;;;;;;17.28;43.57;101504.86;105471;1254;72858;-47
2023/05/04 09:42:25;;;;;;;7.60;2.30;;;;;;;17.42;43.12;101498.86;105419;1257;82346;-47
2023/05/04 09:45:12;;;;;;;6.10;2.10;;;;;;;17.54;43.37;101496.17;105432;1254;73747;-47
2023/05/04 09:47:40;;;;;;;4.90;1.80;;;;;;;17.75;42.82;101498.17;105411;1253;69932;-47
2023/05/04 09:50:16;;;;;;;5.10;2.00;;;;;;;17.84;42.24;101493.30;105398;1255;70498;-46
2023/05/04 09:52:48;;;;;;;4.50;1.90;;;;;;;17.91;42.03;101490.86;105399;1254;74716;-47
2023/05/04 09:55:18;;;;;;;5.70;2.00;;;;;;;18.01;41.66;101483.59;105418;1254;82460;-46
2023/05/04 09:57:48;;;;;;;7.70;2.10;;;;;;;18.14;41.93;101477.83;105422;1254;72815;-46
2023/05/04 10:00:18;;;;;;;6.40;2.30;;;;;;;18.21;41.11;101485.59;105455;1254;71113;-47
2023/05/04 10:02:48;;;;;;;3.60;1.90;;;;;;;18.18;40.58;101481.67;105455;1259;69924;-46
2023/05/04 10:05:17;;;;;;;4.10;2.00;;;;;;;18.23;40.21;101479.11;105466;1258;74601;-46
2023/05/04 10:07:46;;;;;;;4.90;2.20;;;;;;;18.43;40.36;101474.56;105475;1253;83754;-48
2023/05/04 10:10:14;;;;;;;2.90;1.70;;;;;;;18.67;39.98;101464.41;105348;1253;73769;-47
2023/05/04 10:12:45;;;;;;;3.70;2.10;;;;;;;18.92;39.78;101466.46;105441;1254;69973;-46
2023/05/04 10:15:14;;;;;;;5.80;2.00;;;;;;;19.19;39.56;101459.98;105265;1260;70554;-47
2023/05/04 10:18:06;;;;;;;2.80;1.90;;;;;;;19.40;39.25;101458.08;105432;1254;74777;-47
2023/05/04 10:20:35;;;;;;;3.30;2.10;;;;;;;19.72;38.83;101450.27;105422;1254;82444;-47
2023/05/04 10:23:12;;;;;;;2.90;1.60;;;;;;;19.91;38.61;101441.52;105470;1253;73494;-46
2023/05/04 10:26:12;;;;;;;2.90;2.00;;;;;;;20.19;38.35;101442.09;105408;1258;69973;-47
2023/05/04 10:29:01;;;;;;;4.10;2.60;;;;;;;20.50;37.76;101444.27;105360;1254;69958;-47
2023/05/04 10:31:49;;;;;;;3.40;2.40;;;;;;;20.71;37.17;101442.64;105425;1254;75478;-46
2023/05/04 10:34:26;;;;;;;3.60;1.90;;;;;;;20.89;36.75;101436.69;105452;1257;83435;-48
2023/05/04 10:36:55;;;;;;;4.30;2.10;;;;;;;21.08;36.47;101429.09;105388;1254;73302;-47
2023/05/04 10:39:25;;;;;;;3.60;2.00;;;;;;;21.33;36.05;101425.69;105385;1257;69983;-47
2023/05/04 10:42:02;;;;;;;3.80;2.20;;;;;;;21.59;35.87;101420.77;105431;1253;69990;-46
2023/05/04 10:44:33;;;;;;;2.60;1.60;;;;;;;21.82;35.81;101411.80;105423;1253;73847;-47
2023/05/04 10:47:02;;;;;;;4.90;2.10;;;;;;;22.07;35.56;101408.63;105446;1254;82933;-47
2023/05/04 10:49:31;;;;;;;2.90;1.90;;;;;;;22.28;35.23;101400.98;105426;1257;72801;-47
2023/05/04 10:52:16;;;;;;;5.00;2.20;;;;;;;22.59;35.45;101398.40;105510;1253;69983;-48
2023/05/04 10:54:45;;;;;;;4.00;2.00;;;;;;;22.84;34.63;101396.94;105449;1254;69871;-47
2023/05/04 10:57:16;;;;;;;4.50;2.10;;;;;;;22.82;34.63;101392.63;105416;1253;74737;-47
2023/05/04 10:59:54;;;;;;;3.80;1.60;;;;;;;22.87;34.17;101389.77;105420;1253;83492;-46
2023/05/04 11:02:24;;;;;;;3.80;2.10;;;;;;;22.98;33.76;101388.77;105443;1254;73792;-48
2023/05/04 11:04:59;;;;;;;6.80;2.20;;;;;;;23.23;33.76;101386.06;105418;1253;69947;-47
2023/05/04 11:07:36;;;;;;;3.40;1.90;;;;;;;23.41;33.11;101383.70;105447;1253;70000;-47
2023/05/04 11:10:07;;;;;;;3.30;1.90;;;;;;;23.49;32.53;101380.59;105448;1254;74905;-46
2023/05/04 11:12:37;;;;;;;3.70;1.80;;;;;;;23.53;32.14;101375.23;105404;1253;83771;-48
2023/05/04 11:15:06;;;;;;;2.90;1.80;;;;;;;23.64;31.89;101377.30;105450;1253;72838;-47
2023/05/04 11:17:48;;;;;;;3.50;2.00;;;;;;;23.70;31.73;101372.24;105286;1257;69965;-46
2023/05/04 11:20:26;;;;;;;3.00;2.00;;;;;;;23.79;31.56;101369.33;105192;1256;69935;-47
2023/05/04 11:22:54;;;;;;;6.20;2.00;;;;;;;23.81;31.23;101370.42;105229;1259;75247;-48
2023/05/04 11:25:27;;;;;;;4.10;1.90;;;;;;;23.89;30.82;101365.55;105173;1261;83329;-46
2023/05/04 11:27:56;;;;;;;3.70;2.00;;;;;;;24.04;30.79;101361.72;105257;1260;71785;-47
2023/05/04 11:30:33;;;;;;;5.70;2.20;;;;;;;24.27;30.89;101360.46;105275;1256;70003;-48
2023/05/04 11:33:03;;;;;;;4.50;1.70;;;;;;;24.19;30.30;101362.48;105233;1256;69958;-47
2023/05/04 11:35:33;;;;;;;3.60;1.70;;;;;;;24.16;30.32;101365.02;105097;1260;180383;-46
2023/05/04 11:38:01;;;;;;;3.80;1.70;;;;;;;24.13;30.01;101364.88;105287;1256;82864;-47